Time;durP1;ratioP1;P1;durP2;ratioP2;P2;SDS_P1;SDS_P2;PMS_P1;PMS_P2;Temp;Humidity;BMP_temperature;BMP_pressure;BME280_temperature;BME280_humidity;BME280_pressure;Samples;Min_cycle;Max_cycle;Signal;HPM_P1;HPM_P2
2021/06/22 00:00:00;;;;;;;4.69;1.21;;;;;;;23.73;44.94;100638.55;453309;115;926135;-75
2021/06/22 00:01:05;;;;;;;6.55;1.40;;;;;;;23.73;45.00;100634.94;453478;115;925411;-75
2021/06/22 00:02:09;;;;;;;3.32;1.06;;;;;;;23.73;45.03;100644.13;452495;115;923967;-75
2021/06/22 00:03:13;;;;;;;6.32;1.22;;;;;;;23.73;44.93;100640.51;452958;115;924020;-75
2021/06/22 00:04:18;;;;;;;2.25;1.02;;;;;;;23.72;44.93;100645.25;452654;115;925592;-74
2021/06/22 00:05:23;;;;;;;3.80;1.20;;;;;;;23.71;45.00;100642.78;452772;115;922571;-74
2021/06/22 00:06:28;;;;;;;8.39;1.27;;;;;;;23.70;44.98;100650.31;451863;115;930297;-73
2021/06/22 00:07:32;;;;;;;3.29;1.04;;;;;;;23.68;44.89;100638.63;452332;115;922894;-75
2021/06/22 00:08:36;;;;;;;2.62;1.04;;;;;;;23.67;44.85;100646.16;452751;115;922991;-75
2021/06/22 00:09:41;;;;;;;2.94;1.05;;;;;;;23.61;44.96;100640.95;452133;115;930209;-75
2021/06/22 00:10:46;;;;;;;3.71;0.95;;;;;;;23.61;44.96;100640.95;451533;115;922506;-76
2021/06/22 00:11:50;;;;;;;4.98;1.15;;;;;;;23.63;44.97;100644.27;451063;115;923163;-76
2021/06/22 00:12:54;;;;;;;6.29;1.39;;;;;;;23.61;45.09;100639.00;451280;115;923013;-75
2021/06/22 00:13:58;;;;;;;4.19;1.14;;;;;;;23.60;45.12;100640.13;450859;115;922381;-75
2021/06/22 00:15:03;;;;;;;5.76;1.55;;;;;;;23.58;45.13;100644.34;450936;115;922347;-75
2021/06/22 00:16:07;;;;;;;5.08;1.53;;;;;;;23.57;45.15;100642.69;453557;115;930124;-73
2021/06/22 00:17:11;;;;;;;3.87;1.57;;;;;;;23.56;45.11;100641.02;453463;115;923076;-75
2021/06/22 00:18:15;;;;;;;4.29;1.59;;;;;;;23.53;45.18;100647.20;455615;115;922260;-76
2021/06/22 00:19:18;;;;;;;4.54;1.57;;;;;;;23.50;45.13;100634.70;452829;115;922373;-72
2021/06/22 00:20:23;;;;;;;6.53;1.34;;;;;;;23.48;45.15;100642.54;453103;115;922727;-76
2021/06/22 00:21:26;;;;;;;3.66;1.22;;;;;;;23.45;45.17;100637.52;445664;117;930392;-74
2021/06/22 00:22:30;;;;;;;7.23;1.58;;;;;;;23.43;45.18;100636.98;444404;118;930522;-73
2021/06/22 00:23:34;;;;;;;4.84;1.37;;;;;;;23.41;45.28;100632.86;451088;115;922788;-76
2021/06/22 00:24:38;;;;;;;4.42;1.28;;;;;;;23.38;45.36;100642.62;446558;117;930408;-74
2021/06/22 00:25:42;;;;;;;8.51;1.55;;;;;;;23.36;45.33;100632.93;445824;117;922522;-76
2021/06/22 00:26:47;;;;;;;4.90;1.97;;;;;;;23.34;45.42;100638.78;444226;118;930860;-77
2021/06/22 00:27:51;;;;;;;2.61;1.04;;;;;;;23.33;45.49;100639.91;446311;117;922643;-76
2021/06/22 00:28:55;;;;;;;4.67;1.30;;;;;;;23.31;45.50;100635.78;445779;117;932577;-76
2021/06/22 00:29:59;;;;;;;6.61;2.14;;;;;;;23.29;45.48;100642.47;440900;118;923028;-75
2021/06/22 00:31:03;;;;;;;6.99;1.13;;;;;;;23.27;45.38;100636.36;446386;117;924097;-76
2021/06/22 00:32:07;;;;;;;7.83;1.08;;;;;;;23.24;45.41;100636.14;445927;117;922740;-75
2021/06/22 00:33:10;;;;;;;4.36;1.33;;;;;;;23.23;45.45;100637.26;442950;118;922485;-75
2021/06/22 00:34:14;;;;;;;4.13;1.19;;;;;;;23.21;45.45;100631.18;448897;116;923894;-76
2021/06/22 00:35:19;;;;;;;4.61;1.51;;;;;;;23.19;45.49;100628.69;449055;116;922885;-74
2021/06/22 00:36:25;;;;;;;2.92;1.57;;;;;;;23.20;45.54;100629.52;448089;116;924491;-75
2021/06/22 00:37:29;;;;;;;4.76;1.32;;;;;;;23.19;45.56;100627.86;447809;116;922553;-72
2021/06/22 00:38:33;;;;;;;5.67;1.54;;;;;;;23.18;45.50;100632.59;446267;116;933367;-73
2021/06/22 00:39:37;;;;;;;3.74;0.91;;;;;;;23.17;45.47;100630.92;450039;116;922797;-76
2021/06/22 00:40:43;;;;;;;7.89;1.36;;;;;;;23.17;45.44;100624.53;449889;116;923839;-75
2021/06/22 00:41:47;;;;;;;3.58;1.07;;;;;;;23.16;45.46;100631.22;449949;116;924066;-73
2021/06/22 00:42:51;;;;;;;4.77;1.39;;;;;;;23.15;45.44;100630.42;449263;116;926003;-73
2021/06/22 00:44:04;;;;;;;3.19;1.25;;;;;;;23.16;45.48;100631.22;450191;116;924032;-74
2021/06/22 00:45:09;;;;;;;6.25;0.97;;;;;;;23.16;45.48;100632.05;449415;116;924045;-74
2021/06/22 00:46:14;;;;;;;2.83;1.88;;;;;;;23.15;45.47;100633.20;448727;116;924770;-74
2021/06/22 00:47:19;;;;;;;7.14;1.28;;;;;;;23.16;45.47;100631.22;449370;116;927318;-75
2021/06/22 00:48:23;;;;;;;5.14;1.07;;;;;;;23.15;45.53;100635.15;450020;116;926402;-75
2021/06/22 00:49:27;;;;;;;5.42;1.64;;;;;;;23.15;45.55;100629.59;449332;116;922816;-75
2021/06/22 00:50:32;;;;;;;4.16;1.19;;;;;;;23.15;45.62;100632.37;448956;116;922855;-76
2021/06/22 00:51:37;;;;;;;5.48;1.54;;;;;;;23.14;45.64;100628.75;441838;117;922645;-75
2021/06/22 00:52:41;;;;;;;4.69;1.20;;;;;;;23.14;45.60;100634.31;454755;113;922936;-76
2021/06/22 00:53:44;;;;;;;6.61;1.60;;;;;;;23.13;45.60;100631.83;460608;113;922983;-74
2021/06/22 00:54:48;;;;;;;6.36;1.33;;;;;;;23.11;45.63;100631.28;460416;113;926076;-73
2021/06/22 00:55:54;;;;;;;6.10;1.25;;;;;;;23.09;45.59;100634.38;451192;115;922626;-73
2021/06/22 00:57:04;;;;;;;5.58;1.19;;;;;;;23.09;45.60;100639.12;451841;113;924224;-73
2021/06/22 00:58:14;;;;;;;4.12;1.58;;;;;;;23.18;45.58;100637.32;470014;110;950294;-72
2021/06/22 00:59:18;;;;;;;6.37;1.97;;;;;;;23.07;45.64;100639.41;458849;112;924025;-75
2021/06/22 01:00:23;;;;;;;6.79;1.88;;;;;;;23.05;45.62;100646.38;458491;113;922552;-76
2021/06/22 01:01:27;;;;;;;5.20;1.15;;;;;;;23.03;45.71;100646.69;458602;112;922501;-75
2021/06/22 01:02:31;;;;;;;6.49;1.11;;;;;;;23.02;45.80;100645.03;451544;114;922605;-74
2021/06/22 01:03:35;;;;;;;6.59;1.47;;;;;;;23.01;45.83;100646.15;452806;115;924326;-74
2021/06/22 01:04:41;;;;;;;4.59;1.74;;;;;;;23.00;45.87;100644.48;459289;112;923965;-75
2021/06/22 01:06:04;;;;;;;8.18;1.81;;;;;;;22.99;45.92;100642.82;459114;112;924484;-72
2021/06/22 01:07:12;;;;;;;7.01;1.57;;;;;;;22.97;46.02;100647.87;459954;112;923214;-76
2021/06/22 01:08:17;;;;;;;3.59;1.22;;;;;;;22.97;46.08;100644.25;460370;112;922894;-74
2021/06/22 01:09:23;;;;;;;5.69;1.22;;;;;;;22.95;46.09;100643.71;460667;112;922791;-75
2021/06/22 01:10:28;;;;;;;3.33;1.19;;;;;;;22.94;46.05;100651.22;461564;114;922201;-75
2021/06/22 01:11:34;;;;;;;6.72;1.66;;;;;;;22.93;46.13;100646.81;461439;112;922498;-73
2021/06/22 01:12:38;;;;;;;5.70;1.08;;;;;;;22.94;46.22;100647.61;461400;112;925604;-73
2021/06/22 01:13:43;;;;;;;4.16;1.51;;;;;;;22.93;46.16;100648.76;461334;112;923181;-72
2021/06/22 01:14:47;;;;;;;3.45;1.33;;;;;;;22.92;46.17;100645.15;461000;112;926665;-75
2021/06/22 01:15:51;;;;;;;4.40;1.28;;;;;;;22.91;46.30;100646.27;460842;111;922584;-73
2021/06/22 01:16:56;;;;;;;7.54;1.95;;;;;;;22.91;46.33;100651.00;461255;112;922889;-74
2021/06/22 01:18:04;;;;;;;5.87;1.42;;;;;;;22.89;46.35;100645.72;456653;115;930566;-74
2021/06/22 01:19:10;;;;;;;4.42;1.38;;;;;;;22.88;46.29;100646.84;455020;114;930400;-77
2021/06/22 01:20:24;;;;;;;4.79;1.57;;;;;;;22.86;46.19;100647.16;459861;112;923055;-75
2021/06/22 01:21:30;;;;;;;2.65;1.26;;;;;;;22.84;46.13;100645.78;461356;112;922751;-73
2021/06/22 01:22:37;;;;;;;3.42;1.15;;;;;;;22.83;46.15;100656.06;461497;112;924008;-76
2021/06/22 01:23:41;;;;;;;4.71;1.23;;;;;;;22.82;46.10;100648.05;460075;111;924023;-73
2021/06/22 01:24:45;;;;;;;5.09;1.36;;;;;;;22.80;46.03;100655.84;458971;114;925961;-73
2021/06/22 01:25:50;;;;;;;5.19;1.26;;;;;;;22.78;46.04;100658.07;459890;112;924214;-74
2021/06/22 01:26:58;;;;;;;4.53;1.61;;;;;;;22.76;46.01;100660.34;460290;111;925955;-76
2021/06/22 01:28:04;;;;;;;7.36;1.92;;;;;;;22.73;46.01;100656.18;460182;112;931669;-74
2021/06/22 01:29:09;;;;;;;4.61;1.23;;;;;;;22.73;46.04;100656.18;456848;115;925751;-72
2021/06/22 01:30:15;;;;;;;5.48;1.28;;;;;;;22.73;46.07;100653.40;457290;113;924432;-74
2021/06/22 01:31:21;;;;;;;3.38;1.23;;;;;;;22.71;46.06;100658.44;459875;112;930938;-74
2021/06/22 01:32:26;;;;;;;3.65;1.36;;;;;;;22.71;45.97;100658.44;460661;111;924475;-75
2021/06/22 01:33:30;;;;;;;3.32;1.28;;;;;;;22.71;45.94;100655.66;459526;112;931967;-76
2021/06/22 01:34:35;;;;;;;5.29;1.44;;;;;;;22.69;45.94;100663.42;459688;112;926013;-72
2021/06/22 01:35:38;;;;;;;4.57;1.65;;;;;;;22.68;45.87;100655.38;461044;112;924424;-74
2021/06/22 01:36:45;;;;;;;4.91;1.11;;;;;;;22.66;45.93;100658.44;461452;111;922869;-74
2021/06/22 01:38:02;;;;;;;3.92;1.04;;;;;;;22.65;46.02;100655.97;461149;112;922958;-76
2021/06/22 01:39:13;;;;;;;4.56;1.72;;;;;;;22.65;46.04;100658.75;460738;112;923941;-74
2021/06/22 01:40:20;;;;;;;6.32;1.79;;;;;;;22.62;45.94;100654.59;462994;113;924465;-75
2021/06/22 01:41:24;;;;;;;10.04;1.67;;;;;;;22.63;45.87;100660.98;462676;112;922346;-75
2021/06/22 01:42:28;;;;;;;3.13;1.39;;;;;;;22.61;45.79;100666.83;460973;112;924547;-72
2021/06/22 01:43:33;;;;;;;4.07;1.47;;;;;;;22.60;45.70;100662.41;460297;114;922601;-75
2021/06/22 01:44:37;;;;;;;5.84;1.34;;;;;;;22.60;45.62;100670.75;459020;112;924007;-75
2021/06/22 01:45:41;;;;;;;9.54;1.36;;;;;;;22.59;45.57;100657.97;452814;115;932016;-73
2021/06/22 01:46:46;;;;;;;3.49;1.24;;;;;;;22.58;45.52;100661.87;453155;114;924054;-74
2021/06/22 01:47:51;;;;;;;7.07;1.46;;;;;;;22.56;45.38;100666.88;459563;112;924510;-75
2021/06/22 01:48:57;;;;;;;6.80;1.94;;;;;;;22.56;45.33;100664.09;460809;111;931860;-73
2021/06/22 01:50:04;;;;;;;6.79;1.41;;;;;;;22.55;45.28;100665.21;460285;112;924006;-75
2021/06/22 01:51:09;;;;;;;6.18;1.78;;;;;;;22.55;45.27;100664.41;461053;112;923434;-75
2021/06/22 01:52:16;;;;;;;4.33;1.27;;;;;;;22.52;45.18;100660.25;460880;113;922781;-74
2021/06/22 01:53:20;;;;;;;6.87;1.48;;;;;;;22.51;45.08;100663.31;460237;113;930236;-76
2021/06/22 01:54:25;;;;;;;3.37;1.30;;;;;;;22.49;45.07;100666.41;460844;111;923336;-76
2021/06/22 01:55:35;;;;;;;7.74;1.75;;;;;;;22.49;45.11;100665.58;461671;112;923166;-75
2021/06/22 01:56:47;;;;;;;5.14;2.17;;;;;;;22.48;45.10;100667.52;460451;114;923822;-75
2021/06/22 01:57:49;;;;;;;3.93;1.71;;;;;;;22.47;45.13;100668.64;458762;114;930399;-74
2021/06/22 01:58:55;;;;;;;3.76;1.81;;;;;;;22.46;45.20;100669.75;454382;114;923053;-75
2021/06/22 02:00:17;;;;;;;3.81;1.25;;;;;;;22.45;45.12;100674.48;460140;112;923923;-77
2021/06/22 02:01:27;;;;;;;8.63;1.88;;;;;;;22.44;45.14;100669.20;462365;111;923122;-74
2021/06/22 02:02:33;;;;;;;6.51;2.73;;;;;;;22.43;45.21;100675.91;462158;113;922593;-77
2021/06/22 02:03:38;;;;;;;7.30;1.71;;;;;;;22.44;45.31;100666.42;461752;112;922336;-74
2021/06/22 02:04:42;;;;;;;7.26;1.45;;;;;;;22.44;45.40;100671.98;462720;112;922160;-75
2021/06/22 02:05:49;;;;;;;3.89;1.30;;;;;;;22.44;45.44;100669.20;460010;112;922222;-73
2021/06/22 02:06:53;;;;;;;3.73;1.93;;;;;;;22.44;45.58;100672.81;461172;112;922016;-74
2021/06/22 02:08:02;;;;;;;9.50;1.94;;;;;;;22.44;45.58;100669.20;451371;116;923008;-75
2021/06/22 02:09:07;;;;;;;4.76;1.73;;;;;;;22.44;45.65;100675.59;457035;111;922470;-76
2021/06/22 02:10:11;;;;;;;8.32;1.57;;;;;;;22.45;45.71;100668.09;460418;112;922487;-75
2021/06/22 02:11:25;;;;;;;5.07;1.61;;;;;;;22.46;45.72;100664.20;458484;112;925461;-75
2021/06/22 02:12:29;;;;;;;5.69;1.62;;;;;;;22.46;45.74;100666.97;460003;112;922473;-75
2021/06/22 02:13:34;;;;;;;3.95;1.74;;;;;;;22.46;45.78;100672.53;460552;114;922550;-75
2021/06/22 02:14:43;;;;;;;8.27;1.70;;;;;;;22.46;45.81;100669.75;459885;112;926421;-75
2021/06/22 02:15:48;;;;;;;10.00;1.63;;;;;;;22.46;45.76;100670.58;460936;112;923947;-74
2021/06/22 02:16:53;;;;;;;9.51;2.26;;;;;;;22.46;45.70;100675.31;460485;112;930493;-73
2021/06/22 02:17:57;;;;;;;4.64;1.43;;;;;;;22.44;45.70;100672.81;460798;112;923501;-74
2021/06/22 02:19:01;;;;;;;5.41;1.54;;;;;;;22.44;45.52;100674.76;461158;114;922544;-77
2021/06/22 02:20:08;;;;;;;4.68;1.25;;;;;;;22.44;45.54;100669.20;460936;111;922593;-75
2021/06/22 02:21:13;;;;;;;6.87;1.39;;;;;;;22.44;45.56;100669.20;461641;111;923144;-74
2021/06/22 02:22:17;;;;;;;4.79;1.89;;;;;;;22.43;45.44;100671.19;462626;114;922690;-76
2021/06/22 02:23:26;;;;;;;8.35;1.55;;;;;;;22.44;45.36;100675.59;461967;112;926747;-73
2021/06/22 02:24:30;;;;;;;5.11;1.69;;;;;;;22.45;45.34;100673.64;460528;112;922964;-73
2021/06/22 02:25:35;;;;;;;10.01;2.30;;;;;;;22.46;45.30;100678.09;460502;112;925939;-72
2021/06/22 02:26:43;;;;;;;6.57;1.96;;;;;;;22.45;45.26;100671.70;452512;115;925486;-74
2021/06/22 02:27:47;;;;;;;9.00;1.91;;;;;;;22.46;45.17;100673.36;452341;112;925465;-73
2021/06/22 02:28:52;;;;;;;7.85;2.38;;;;;;;22.48;45.16;100673.08;459076;112;922608;-73
2021/06/22 02:29:56;;;;;;;8.19;2.11;;;;;;;22.48;45.10;100675.86;461010;112;924476;-74
2021/06/22 02:31:01;;;;;;;10.05;2.47;;;;;;;22.49;45.07;100677.52;460004;112;926157;-75
2021/06/22 02:32:05;;;;;;;8.50;1.96;;;;;;;22.49;44.97;100677.52;460481;112;926019;-74
2021/06/22 02:33:10;;;;;;;7.55;2.82;;;;;;;22.50;44.97;100683.88;461076;112;923738;-75
2021/06/22 02:34:14;;;;;;;12.77;2.17;;;;;;;22.51;45.10;100691.10;459580;114;932024;-75
2021/06/22 02:35:18;;;;;;;6.77;2.81;;;;;;;22.51;44.92;100686.38;459874;112;925164;-73
2021/06/22 02:36:24;;;;;;;9.33;2.32;;;;;;;22.53;44.75;100688.88;459972;112;924566;-74
2021/06/22 02:37:28;;;;;;;4.18;2.05;;;;;;;22.54;44.93;100690.54;460293;112;923995;-75
2021/06/22 02:38:32;;;;;;;5.59;2.21;;;;;;;22.53;44.84;100698.04;459985;112;923971;-75
2021/06/22 02:39:37;;;;;;;9.47;1.76;;;;;;;22.53;44.66;100695.27;460553;114;926586;-75
2021/06/22 02:40:44;;;;;;;6.01;1.72;;;;;;;22.54;44.65;100696.09;460033;111;926825;-76
2021/06/22 02:41:48;;;;;;;11.56;2.98;;;;;;;22.54;44.86;100696.92;461027;114;924499;-75
2021/06/22 02:42:53;;;;;;;9.19;2.31;;;;;;;22.56;44.72;100693.83;461138;112;926838;-76
2021/06/22 02:43:57;;;;;;;7.31;2.38;;;;;;;22.56;44.64;100699.39;461173;114;926299;-75
2021/06/22 02:45:04;;;;;;;6.49;2.19;;;;;;;22.58;44.62;100692.44;461138;112;924589;-75
2021/06/22 02:46:10;;;;;;;9.01;2.31;;;;;;;22.59;44.57;100693.27;462275;112;924528;-73
2021/06/22 02:47:15;;;;;;;4.16;1.85;;;;;;;22.60;44.69;100692.98;460102;111;922701;-74
2021/06/22 02:48:20;;;;;;;5.66;2.73;;;;;;;22.60;44.62;100698.55;457013;115;922951;-75
2021/06/22 02:49:24;;;;;;;10.03;3.72;;;;;;;22.62;44.61;100699.06;456346;114;922685;-73
2021/06/22 02:50:28;;;;;;;12.21;3.05;;;;;;;22.64;44.64;100698.78;459959;113;922770;-73
2021/06/22 02:51:32;;;;;;;8.15;3.30;;;;;;;22.65;44.56;100703.22;454316;114;931965;-75
2021/06/22 02:52:37;;;;;;;8.01;2.48;;;;;;;22.66;44.54;100699.33;453804;114;922352;-73
2021/06/22 02:53:41;;;;;;;6.24;2.28;;;;;;;22.67;44.41;100706.52;460100;111;922430;-74
2021/06/22 02:54:45;;;;;;;14.59;3.22;;;;;;;22.68;44.39;100691.50;459348;114;922459;-76
2021/06/22 02:55:49;;;;;;;6.82;1.84;;;;;;;22.67;44.36;100699.02;460411;113;922556;-75
2021/06/22 02:56:53;;;;;;;11.95;2.34;;;;;;;22.69;44.39;100696.78;460191;112;922812;-73
2021/06/22 02:57:58;;;;;;;9.04;2.03;;;;;;;22.70;44.51;100690.11;461111;112;921995;-74
2021/06/22 02:59:03;;;;;;;9.76;2.09;;;;;;;22.72;44.41;100701.77;455325;114;922342;-74
2021/06/22 03:00:08;;;;;;;7.86;1.71;;;;;;;22.72;44.34;100698.99;455187;111;922683;-74
2021/06/22 03:01:12;;;;;;;9.85;2.16;;;;;;;22.75;44.44;100697.59;462274;111;922491;-76
2021/06/22 03:02:16;;;;;;;6.46;2.31;;;;;;;22.74;44.44;100693.98;461815;111;929926;-76
2021/06/22 03:03:19;;;;;;;10.74;2.16;;;;;;;22.77;44.46;100689.80;460389;112;926355;-72
2021/06/22 03:04:25;;;;;;;9.09;2.49;;;;;;;22.78;44.42;100686.70;461418;111;932011;-74
2021/06/22 03:05:29;;;;;;;9.11;1.95;;;;;;;22.79;44.45;100693.93;461207;112;924062;-74
2021/06/22 03:06:35;;;;;;;3.10;1.80;;;;;;;22.82;44.41;100698.09;462065;112;924479;-73
2021/06/22 03:07:42;;;;;;;6.18;1.78;;;;;;;22.83;44.40;100700.55;460345;112;924128;-75
2021/06/22 03:08:46;;;;;;;6.38;1.76;;;;;;;22.85;44.38;100698.32;453637;115;924027;-75
2021/06/22 03:09:50;;;;;;;8.07;1.83;;;;;;;22.88;44.34;100704.42;454979;114;924559;-76
2021/06/22 03:10:56;;;;;;;11.33;2.17;;;;;;;22.89;44.33;100706.89;461372;111;922673;-73
2021/06/22 03:12:01;;;;;;;8.25;2.01;;;;;;;22.93;44.29;100709.94;453529;114;922592;-75
2021/06/22 03:13:07;;;;;;;8.88;2.06;;;;;;;22.95;44.27;100704.89;453143;114;924360;-73
2021/06/22 03:14:12;;;;;;;14.35;2.16;;;;;;;22.97;44.02;100711.00;458372;112;924060;-75
2021/06/22 03:15:20;;;;;;;13.12;2.31;;;;;;;22.98;44.04;100707.09;457602;113;925602;-74
2021/06/22 03:16:27;;;;;;;7.95;2.01;;;;;;;22.98;44.03;100707.09;460019;112;924036;-77
2021/06/22 03:17:31;;;;;;;10.01;2.36;;;;;;;23.00;44.02;100710.39;456166;115;924042;-73
2021/06/22 03:18:36;;;;;;;12.56;1.91;;;;;;;23.00;43.74;100715.95;457397;114;924043;-74
2021/06/22 03:19:41;;;;;;;12.24;1.89;;;;;;;22.99;43.86;100717.11;459041;111;924770;-76
2021/06/22 03:20:46;;;;;;;6.19;1.61;;;;;;;22.99;43.92;100711.55;460772;112;922713;-75
2021/06/22 03:21:50;;;;;;;7.58;1.73;;;;;;;22.98;43.98;100712.66;461059;114;932080;-74
2021/06/22 03:22:54;;;;;;;7.01;1.82;;;;;;;22.99;44.04;100708.77;461147;112;923909;-75
2021/06/22 03:23:58;;;;;;;7.55;2.13;;;;;;;22.98;43.88;100713.49;460541;112;923987;-74
2021/06/22 03:25:05;;;;;;;9.08;1.79;;;;;;;22.97;43.76;100717.39;460523;112;924062;-74
2021/06/22 03:26:09;;;;;;;11.80;1.95;;;;;;;22.96;43.75;100724.06;460872;114;922500;-74
2021/06/22 03:27:13;;;;;;;10.15;1.79;;;;;;;22.98;43.96;100721.00;462300;111;922708;-75
2021/06/22 03:28:25;;;;;;;10.34;2.22;;;;;;;22.97;44.18;100719.34;459109;113;922543;-75
2021/06/22 03:29:34;;;;;;;10.03;2.34;;;;;;;22.98;44.17;100721.00;459693;112;922904;-74
2021/06/22 03:30:43;;;;;;;12.74;1.97;;;;;;;22.95;44.27;100725.19;461042;112;923936;-76
2021/06/22 03:31:46;;;;;;;7.70;2.22;;;;;;;22.96;44.29;100720.45;461930;112;924520;-74
2021/06/22 03:32:50;;;;;;;9.75;1.99;;;;;;;22.95;44.23;100713.23;460190;111;925489;-74
2021/06/22 03:33:54;;;;;;;7.44;1.91;;;;;;;22.95;44.17;100721.58;459482;112;924524;-76
2021/06/22 03:34:58;;;;;;;8.66;1.86;;;;;;;22.94;44.27;100717.96;460358;112;930493;-75
2021/06/22 03:36:03;;;;;;;8.73;2.26;;;;;;;22.95;44.19;100707.67;459641;112;924374;-75
2021/06/22 03:37:07;;;;;;;7.83;1.84;;;;;;;22.94;44.15;100712.40;459053;111;925336;-76
2021/06/22 03:38:12;;;;;;;9.96;1.72;;;;;;;22.93;44.09;100707.98;459859;112;924082;-74
2021/06/22 03:39:16;;;;;;;11.67;2.44;;;;;;;22.93;44.01;100709.94;457427;114;924041;-73
2021/06/22 03:40:22;;;;;;;10.34;2.00;;;;;;;22.92;44.13;100714.66;457807;114;930655;-73
2021/06/22 03:41:26;;;;;;;7.16;2.06;;;;;;;22.92;44.24;100709.10;460801;112;922836;-75
2021/06/22 03:42:31;;;;;;;8.32;2.46;;;;;;;22.93;44.29;100713.55;460758;112;930797;-74
2021/06/22 03:43:34;;;;;;;9.15;2.03;;;;;;;22.94;44.27;100708.78;460800;112;922484;-75
2021/06/22 03:44:38;;;;;;;5.76;1.92;;;;;;;22.94;44.20;100708.78;461147;113;923144;-74
2021/06/22 03:45:43;;;;;;;10.93;2.33;;;;;;;22.96;44.42;100714.89;460630;112;930468;-74
2021/06/22 03:46:48;;;;;;;9.95;2.12;;;;;;;22.96;44.44;100712.11;461157;113;923127;-76
2021/06/22 03:47:52;;;;;;;8.31;1.76;;;;;;;22.96;44.61;100707.39;461132;112;930339;-75
2021/06/22 03:48:57;;;;;;;9.01;2.14;;;;;;;22.96;44.62;100715.73;461960;114;922737;-73
2021/06/22 03:50:01;;;;;;;8.12;2.05;;;;;;;22.97;44.59;100716.56;458656;114;930538;-75
2021/06/22 03:51:05;;;;;;;8.12;1.91;;;;;;;22.98;44.64;100721.00;459704;114;922631;-75
2021/06/22 03:52:10;;;;;;;8.61;2.01;;;;;;;23.00;44.72;100710.39;454280;114;922657;-75
2021/06/22 03:53:14;;;;;;;7.22;2.65;;;;;;;23.00;44.67;100713.17;456495;114;923031;-74
2021/06/22 03:54:18;;;;;;;8.71;3.41;;;;;;;23.01;44.74;100712.06;464099;111;922314;-77
2021/06/22 03:55:26;;;;;;;21.49;3.45;;;;;;;23.02;44.67;100710.94;461436;112;922228;-76
2021/06/22 03:56:47;;;;;;;7.22;2.57;;;;;;;23.03;44.65;100715.39;459195;113;923971;-74
2021/06/22 03:57:55;;;;;;;9.78;2.51;;;;;;;23.04;44.45;100714.27;460950;112;922517;-74
2021/06/22 03:59:01;;;;;;;7.29;2.11;;;;;;;23.06;44.51;100721.17;460989;112;924738;-74
2021/06/22 04:00:07;;;;;;;16.01;3.13;;;;;;;23.08;44.51;100718.11;459971;114;922713;-72
2021/06/22 04:01:13;;;;;;;7.63;1.66;;;;;;;23.10;44.50;100716.67;459986;112;927680;-75
2021/06/22 04:02:19;;;;;;;8.22;2.19;;;;;;;23.13;44.27;100715.27;460927;113;924321;-72
2021/06/22 04:03:23;;;;;;;9.50;2.24;;;;;;;23.14;44.17;100717.77;456503;114;922493;-76
2021/06/22 04:04:37;;;;;;;10.22;2.27;;;;;;;23.16;44.07;100723.84;436615;120;923353;-75
2021/06/22 04:05:49;;;;;;;12.19;2.37;;;;;;;23.19;44.26;100726.05;424698;123;922951;-74
2021/06/22 04:07:02;;;;;;;14.19;2.64;;;;;;;23.21;44.30;100731.33;459218;112;922646;-73
2021/06/22 04:08:08;;;;;;;6.56;2.04;;;;;;;23.24;44.05;100728.78;460356;112;925452;-71
2021/06/22 04:09:13;;;;;;;8.32;2.36;;;;;;;23.26;43.88;100737.67;457260;114;922563;-74
2021/06/22 04:10:20;;;;;;;10.78;2.10;;;;;;;23.29;43.74;100736.23;458450;114;924028;-75
2021/06/22 04:11:26;;;;;;;11.31;2.24;;;;;;;23.31;43.91;100733.99;459797;112;925546;-74
2021/06/22 04:12:32;;;;;;;10.48;2.36;;;;;;;23.34;43.91;100730.61;461299;112;923480;-75
2021/06/22 04:13:37;;;;;;;12.42;1.98;;;;;;;23.36;43.74;100733.94;456861;114;924130;-74
2021/06/22 04:14:42;;;;;;;12.54;1.87;;;;;;;23.38;43.76;100739.18;457761;114;925094;-76
2021/06/22 04:15:46;;;;;;;15.88;1.77;;;;;;;23.41;43.67;100733.88;462428;113;924047;-75
2021/06/22 04:16:52;;;;;;;8.37;2.04;;;;;;;23.42;43.58;100745.84;459796;112;932981;-77
2021/06/22 04:18:03;;;;;;;8.54;2.27;;;;;;;23.44;43.39;100749.96;460254;112;924013;-74
2021/06/22 04:19:07;;;;;;;8.63;2.27;;;;;;;23.45;43.45;100743.28;450482;114;923214;-74
2021/06/22 04:20:14;;;;;;;9.62;1.73;;;;;;;23.45;43.32;100740.49;450776;114;924051;-74
2021/06/22 04:21:18;;;;;;;12.59;2.16;;;;;;;23.46;43.30;100731.06;460848;114;924492;-72
2021/06/22 04:22:23;;;;;;;13.93;5.65;;;;;;;23.47;43.33;100743.02;461035;112;922550;-74
2021/06/22 04:23:29;;;;;;;8.88;3.11;;;;;;;23.48;43.27;100739.95;458306;113;924052;-71
2021/06/22 04:24:33;;;;;;;10.30;2.54;;;;;;;23.49;43.21;100741.58;455825;115;924521;-73
2021/06/22 04:25:37;;;;;;;16.25;2.26;;;;;;;23.51;43.38;100738.52;457246;113;923811;-76
2021/06/22 04:26:42;;;;;;;17.28;2.91;;;;;;;23.52;43.39;100740.17;460807;114;931847;-73
2021/06/22 04:27:46;;;;;;;14.95;2.18;;;;;;;23.54;43.47;100735.95;461101;112;924067;-74
2021/06/22 04:28:50;;;;;;;4.91;1.84;;;;;;;23.57;43.57;100738.16;461010;112;923343;-75
2021/06/22 04:29:54;;;;;;;13.13;2.16;;;;;;;23.59;43.63;100747.05;460484;113;923894;-74
2021/06/22 04:30:58;;;;;;;18.88;2.56;;;;;;;23.62;43.74;100740.05;460099;111;925840;-73
2021/06/22 04:32:03;;;;;;;11.46;2.45;;;;;;;23.64;43.65;100733.06;460420;114;924121;-75
2021/06/22 04:33:08;;;;;;;11.51;2.46;;;;;;;23.66;43.65;100736.36;460805;111;925863;-74
2021/06/22 04:34:11;;;;;;;8.04;2.02;;;;;;;23.69;43.77;100737.73;461150;112;922763;-74
2021/06/22 04:35:15;;;;;;;11.17;2.17;;;;;;;23.71;43.81;100729.09;460986;112;926324;-75
2021/06/22 04:36:21;;;;;;;10.75;2.10;;;;;;;23.74;43.68;100734.88;460120;113;925393;-72
2021/06/22 04:37:26;;;;;;;10.25;1.97;;;;;;;23.77;43.64;100739.01;461460;111;924082;-74
2021/06/22 04:38:31;;;;;;;12.24;2.30;;;;;;;23.78;43.49;100738.72;460627;112;922658;-75
2021/06/22 04:39:35;;;;;;;8.29;2.56;;;;;;;23.81;43.53;100742.88;460681;111;924043;-73
2021/06/22 04:40:40;;;;;;;9.44;2.39;;;;;;;23.83;43.64;100740.60;459724;112;922739;-75
2021/06/22 04:41:44;;;;;;;17.33;2.04;;;;;;;23.85;43.65;100744.76;459680;112;922515;-73
2021/06/22 04:42:47;;;;;;;11.94;2.32;;;;;;;23.88;43.73;100737.74;459192;112;930252;-74
2021/06/22 04:43:52;;;;;;;7.33;2.06;;;;;;;23.91;43.83;100748.30;461738;112;922620;-74
2021/06/22 04:44:55;;;;;;;13.35;2.53;;;;;;;23.93;43.90;100748.81;459688;112;925563;-74
2021/06/22 04:45:59;;;;;;;11.14;3.04;;;;;;;23.97;43.90;100738.75;460192;111;924480;-74
2021/06/22 04:47:04;;;;;;;12.03;2.51;;;;;;;24.02;43.91;100747.03;460879;112;922240;-75
2021/06/22 04:48:08;;;;;;;14.33;3.25;;;;;;;24.05;43.92;100740.84;462081;113;922171;-74
2021/06/22 04:49:12;;;;;;;13.86;2.58;;;;;;;24.09;43.88;100744.72;461318;112;929998;-74
2021/06/22 04:50:15;;;;;;;15.39;2.58;;;;;;;24.12;43.88;100738.52;462226;111;922399;-75
2021/06/22 04:51:19;;;;;;;9.18;2.37;;;;;;;24.14;43.97;100735.45;461302;112;930206;-73
2021/06/22 04:52:23;;;;;;;11.11;2.29;;;;;;;24.17;43.80;100743.19;460360;112;930542;-71
2021/06/22 04:53:27;;;;;;;14.08;2.81;;;;;;;24.20;43.86;100740.68;460595;114;930719;-73
2021/06/22 04:54:31;;;;;;;12.31;2.54;;;;;;;24.22;43.69;100741.19;461618;112;922592;-72
2021/06/22 04:55:34;;;;;;;14.35;3.62;;;;;;;24.25;43.71;100736.98;461498;112;922593;-71
2021/06/22 04:56:40;;;;;;;9.51;2.14;;;;;;;24.27;43.55;100741.11;460368;112;922718;-73
2021/06/22 04:57:46;;;;;;;16.74;2.94;;;;;;;24.31;43.40;100741.35;460793;112;924495;-72
2021/06/22 04:58:53;;;;;;;11.39;3.51;;;;;;;24.33;43.36;100748.27;461007;112;922672;-73